Flight Track Log - Related Links

Times and Time Zones

All times are in EDT time to prevent confusion due to time zone crossing. See the EJA749 flight status page for this flight to view local times or setup timezone preferences in your user account.

Time Position Orientation Groundspeed Altitude Reporting Facility
EDT Latitude Longitude Course Direction KTS MPH feet Rate Location/Type
Wed 09:25:16 AM 32.1253 -81.1436 53° Northeast 219 252 3,300  Level Jacksonville Center
Wed 09:26:16 AM 32.1219 -81.0650 93° East 257 296 7,400 3,350 Climbing Jacksonville Center
Wed 09:27:16 AM 32.1692 -81.0003 49° Northeast 271 312 10,000 1,350 Climbing Jacksonville Center
Wed 09:28:16 AM 32.2203 -80.9331 48° Northeast 272 313 10,100  Climbing Jacksonville Center
Wed 09:29:16 AM 32.2694 -80.8656 49° Northeast 246 283 10,000  Descending Jacksonville Center
Wed 09:30:00 AM 32.1276 -81.2021 53° Northeast  Level Estimated
Wed 09:30:16 AM 32.3083 -80.8181 46° Northeast 206 237 10,100  Level Jacksonville Center
Wed 09:31:16 AM 32.3450 -80.7681 49° Northeast 190 219 10,100  Level Jacksonville Center
Wed 09:32:16 AM 32.3817 -80.7156 50° Northeast 190 219 10,100 -50 Level Jacksonville Center
Wed 09:33:16 AM 32.4183 -80.6703 46° Northeast 185 213 10,000  Descending Jacksonville Center
Wed 09:34:16 AM 32.4511 -80.6253 49° Northeast 185 213 10,100 50 Climbing Jacksonville Center
Wed 09:35:16 AM 32.4878 -80.5800 46° Northeast 185 213 10,100  Level Jacksonville Center
Wed 09:36:16 AM 32.5203 -80.5372 48° Northeast 185 213 10,100  Level Jacksonville Center
Wed 09:37:16 AM 32.5569 -80.4894 48° Northeast 190 219 10,100  Level Jacksonville Center
Wed 09:38:16 AM 32.6019 -80.4317 47° Northeast 198 228 10,100 450 Level Jacksonville Center
Wed 09:39:16 AM 32.6608 -80.3533 48° Northeast 287 330 11,000 2,050 Climbing Jacksonville Center
Wed 09:40:16 AM 32.7281 -80.2628 49° Northeast 315 362 14,200 3,100 Climbing Jacksonville Center
Wed 09:41:16 AM 32.8011 -80.1767 45° Northeast 346 398 17,200 2,850 Climbing Jacksonville Center
Wed 09:42:16 AM 32.8978 -80.1983 349° North 325 374 19,900 2,750 Climbing Jacksonville Center
Wed 09:43:16 AM 32.9272 -80.3186 286° West 254 292 22,700 1,550 Climbing Jacksonville Center
Wed 09:44:16 AM 32.9364 -80.4594 274° West 328 377 23,000 200 Climbing Jacksonville Center
Wed 09:45:16 AM 32.9539 -80.6125 278° West 402 463 23,100  Climbing Jacksonville Center
Wed 09:46:16 AM 32.9669 -80.7708 276° West 463 533 23,000 -50 Descending Jacksonville Center
Wed 09:47:16 AM 32.9822 -80.9314 277° West 480 552 23,000  Level Jacksonville Center
Wed 09:48:16 AM 32.9928 -81.0822 275° West 478 550 23,000 -400 Level Jacksonville Center
Wed 09:49:16 AM 32.9967 -81.2158 272° West 448 516 22,200 -1,950 Descending Jacksonville Center
Wed 09:50:16 AM 32.9186 -81.2989 222° Southwest 346 398 19,100 -2,900 Descending Jacksonville Center
Wed 09:51:16 AM 32.8161 -81.3008 181° South 308 354 16,400 -2,850 Descending Jacksonville Center
Wed 09:52:16 AM 32.7181 -81.3050 182° South 337 388 13,400 -2,850 Descending Jacksonville Center
Wed 09:53:16 AM 32.6261 -81.2942 174° South 326 375 10,700 -2,000 Descending Jacksonville Center
Wed 09:54:16 AM 32.5428 -81.2956 181° South 305 351 9,400 -1,350 Descending Jacksonville Center
Wed 09:55:16 AM 32.4636 -81.3044 185° South 315 362 8,000 -1,500 Descending Jacksonville Center
Wed 09:56:16 AM 32.3697 -81.3111 183° South 320 368 6,400 -1,450 Descending Jacksonville Center
Wed 09:57:16 AM 32.2967 -81.3197 186° South 288 331 5,100 -1,300 Descending Jacksonville Center
Wed 09:58:16 AM 32.2258 -81.3283 186° South 266 306 3,800 -1,350 Descending Jacksonville Center
Wed 09:59:16 AM 32.1547 -81.3244 177° South 261 300 2,400 -1,400 Descending Jacksonville Center
Wed 10:01:00 AM 32.1167 -81.2000 180° South  Level FlightAware Approximate
Wed 10:08:00 AM 32.1276 -81.2021 180° South  Level Estimated
Wed 10:09:00 AM 32.1276 -81.2021 180° South  Level Estimated
Wed 10:10:00 AM 32.1276 -81.2021 180° South  Level Estimated
Wed 10:11:00 AM 32.1276 -81.2021 180° South  Level Estimated

Login

Don't have an account? Register now (free) for customized features, flight alerts, and more!